sensor_id;sensor_type;location;lat;lon;timestamp;temperature;humidity
38237;DHT22;50101;49.438;11.098;2023-10-08T00:00:46;19.80;67.10
38237;DHT22;50101;49.438;11.098;2023-10-08T00:03:16;19.80;67.10
38237;DHT22;50101;49.438;11.098;2023-10-08T00:05:44;19.80;67.10
38237;DHT22;50101;49.438;11.098;2023-10-08T00:08:12;19.80;67.10
38237;DHT22;50101;49.438;11.098;2023-10-08T00:10:43;19.80;67.10
38237;DHT22;50101;49.438;11.098;2023-10-08T00:13:12;19.80;67.10
38237;DHT22;50101;49.438;11.098;2023-10-08T00:15:40;19.80;67.10
38237;DHT22;50101;49.438;11.098;2023-10-08T00:18:20;19.80;67.10
38237;DHT22;50101;49.438;11.098;2023-10-08T00:20:49;19.80;67.10
38237;DHT22;50101;49.438;11.098;2023-10-08T00:23:37;19.80;67.10
38237;DHT22;50101;49.438;11.098;2023-10-08T00:26:08;19.80;67.10
38237;DHT22;50101;49.438;11.098;2023-10-08T00:28:35;19.80;67.10
38237;DHT22;50101;49.438;11.098;2023-10-08T00:31:02;19.70;67.00
38237;DHT22;50101;49.438;11.098;2023-10-08T00:33:38;19.80;67.10
38237;DHT22;50101;49.438;11.098;2023-10-08T00:36:05;19.80;67.10
38237;DHT22;50101;49.438;11.098;2023-10-08T00:38:44;19.80;67.10
38237;DHT22;50101;49.438;11.098;2023-10-08T00:41:14;19.80;67.10
38237;DHT22;50101;49.438;11.098;2023-10-08T00:43:41;19.80;67.10
38237;DHT22;50101;49.438;11.098;2023-10-08T00:46:11;19.80;67.10
38237;DHT22;50101;49.438;11.098;2023-10-08T00:48:53;19.80;67.10
38237;DHT22;50101;49.438;11.098;2023-10-08T00:51:24;19.80;67.10
38237;DHT22;50101;49.438;11.098;2023-10-08T00:54:01;19.80;67.10
38237;DHT22;50101;49.438;11.098;2023-10-08T00:56:36;19.80;67.10
38237;DHT22;50101;49.438;11.098;2023-10-08T00:59:12;19.80;67.10
38237;DHT22;50101;49.438;11.098;2023-10-08T01:01:44;19.80;67.10
38237;DHT22;50101;49.438;11.098;2023-10-08T01:04:26;19.80;67.10
38237;DHT22;50101;49.438;11.098;2023-10-08T01:06:54;19.80;67.10
38237;DHT22;50101;49.438;11.098;2023-10-08T01:09:26;19.80;67.10
38237;DHT22;50101;49.438;11.098;2023-10-08T01:12:19;19.80;67.80
38237;DHT22;50101;49.438;11.098;2023-10-08T01:14:50;19.80;67.10
38237;DHT22;50101;49.438;11.098;2023-10-08T01:17:23;19.80;67.10
38237;DHT22;50101;49.438;11.098;2023-10-08T01:19:58;19.80;67.10
38237;DHT22;50101;49.438;11.098;2023-10-08T01:22:57;19.80;67.10
38237;DHT22;50101;49.438;11.098;2023-10-08T01:25:24;19.80;67.10
38237;DHT22;50101;49.438;11.098;2023-10-08T01:27:57;19.80;67.10
38237;DHT22;50101;49.438;11.098;2023-10-08T01:30:45;19.70;67.00
38237;DHT22;50101;49.438;11.098;2023-10-08T01:33:14;19.70;67.00
38237;DHT22;50101;49.438;11.098;2023-10-08T01:35:42;19.80;67.10
38237;DHT22;50101;49.438;11.098;2023-10-08T01:38:09;19.70;67.00
38237;DHT22;50101;49.438;11.098;2023-10-08T01:40:41;19.80;67.10
38237;DHT22;50101;49.438;11.098;2023-10-08T01:43:08;19.70;67.00
38237;DHT22;50101;49.438;11.098;2023-10-08T01:45:37;19.80;67.10
38237;DHT22;50101;49.438;11.098;2023-10-08T01:48:07;19.70;67.00
38237;DHT22;50101;49.438;11.098;2023-10-08T01:50:37;19.70;67.00
38237;DHT22;50101;49.438;11.098;2023-10-08T01:53:04;19.70;67.00
38237;DHT22;50101;49.438;11.098;2023-10-08T01:55:37;19.80;67.10
38237;DHT22;50101;49.438;11.098;2023-10-08T01:58:16;19.70;67.00
38237;DHT22;50101;49.438;11.098;2023-10-08T02:00:46;19.70;67.00
38237;DHT22;50101;49.438;11.098;2023-10-08T02:03:14;19.70;67.00
38237;DHT22;50101;49.438;11.098;2023-10-08T02:05:43;19.80;67.10
38237;DHT22;50101;49.438;11.098;2023-10-08T02:08:11;19.80;67.10
38237;DHT22;50101;49.438;11.098;2023-10-08T02:10:40;19.70;67.00
38237;DHT22;50101;49.438;11.098;2023-10-08T02:13:07;19.80;67.10
38237;DHT22;50101;49.438;11.098;2023-10-08T02:15:43;19.70;67.00
38237;DHT22;50101;49.438;11.098;2023-10-08T02:18:10;19.70;67.00
38237;DHT22;50101;49.438;11.098;2023-10-08T02:20:39;19.70;67.00
38237;DHT22;50101;49.438;11.098;2023-10-08T02:23:06;19.70;67.00
38237;DHT22;50101;49.438;11.098;2023-10-08T02:25:33;19.70;67.00
38237;DHT22;50101;49.438;11.098;2023-10-08T02:28:03;19.80;67.10
38237;DHT22;50101;49.438;11.098;2023-10-08T02:30:29;19.70;67.00
38237;DHT22;50101;49.438;11.098;2023-10-08T02:32:56;19.70;67.00
38237;DHT22;50101;49.438;11.098;2023-10-08T02:35:25;19.70;67.00
38237;DHT22;50101;49.438;11.098;2023-10-08T02:37:53;19.70;67.00
38237;DHT22;50101;49.438;11.098;2023-10-08T02:40:21;19.70;67.00
38237;DHT22;50101;49.438;11.098;2023-10-08T02:42:54;19.70;67.00
38237;DHT22;50101;49.438;11.098;2023-10-08T02:45:26;19.70;67.00
38237;DHT22;50101;49.438;11.098;2023-10-08T02:47:53;19.70;67.00
38237;DHT22;50101;49.438;11.098;2023-10-08T02:50:21;19.80;67.10
38237;DHT22;50101;49.438;11.098;2023-10-08T02:52:49;19.70;67.00
38237;DHT22;50101;49.438;11.098;2023-10-08T02:55:18;19.70;67.00
38237;DHT22;50101;49.438;11.098;2023-10-08T02:58:05;19.70;67.00
38237;DHT22;50101;49.438;11.098;2023-10-08T03:00:32;19.70;67.00
38237;DHT22;50101;49.438;11.098;2023-10-08T03:03:01;19.70;67.00
38237;DHT22;50101;49.438;11.098;2023-10-08T03:05:29;19.70;67.00
38237;DHT22;50101;49.438;11.098;2023-10-08T03:08:03;19.70;67.00
38237;DHT22;50101;49.438;11.098;2023-10-08T03:10:38;19.70;67.00
38237;DHT22;50101;49.438;11.098;2023-10-08T03:13:04;19.70;67.00
38237;DHT22;50101;49.438;11.098;2023-10-08T03:15:32;19.70;67.00
38237;DHT22;50101;49.438;11.098;2023-10-08T03:18:25;19.70;67.00
38237;DHT22;50101;49.438;11.098;2023-10-08T03:20:52;19.70;67.00
38237;DHT22;50101;49.438;11.098;2023-10-08T03:23:19;19.70;67.00
38237;DHT22;50101;49.438;11.098;2023-10-08T03:25:54;19.70;67.00
38237;DHT22;50101;49.438;11.098;2023-10-08T03:28:38;19.70;67.00
38237;DHT22;50101;49.438;11.098;2023-10-08T03:31:07;19.70;67.70
38237;DHT22;50101;49.438;11.098;2023-10-08T03:33:44;19.70;67.00
38237;DHT22;50101;49.438;11.098;2023-10-08T03:36:15;19.70;67.00
38237;DHT22;50101;49.438;11.098;2023-10-08T03:38:48;19.70;67.00
38237;DHT22;50101;49.438;11.098;2023-10-08T03:41:23;19.70;67.00
38237;DHT22;50101;49.438;11.098;2023-10-08T03:43:55;19.70;67.00
38237;DHT22;50101;49.438;11.098;2023-10-08T03:46:42;19.70;67.00
38237;DHT22;50101;49.438;11.098;2023-10-08T03:49:10;19.70;67.00
38237;DHT22;50101;49.438;11.098;2023-10-08T03:51:56;19.70;67.00
38237;DHT22;50101;49.438;11.098;2023-10-08T03:54:24;19.70;67.00
38237;DHT22;50101;49.438;11.098;2023-10-08T03:57:01;19.70;67.00
38237;DHT22;50101;49.438;11.098;2023-10-08T03:59:30;19.70;67.00
38237;DHT22;50101;49.438;11.098;2023-10-08T04:02:00;19.70;67.00
38237;DHT22;50101;49.438;11.098;2023-10-08T04:04:45;19.70;67.00
38237;DHT22;50101;49.438;11.098;2023-10-08T04:07:20;19.70;67.00
38237;DHT22;50101;49.438;11.098;2023-10-08T04:10:01;19.70;67.00
38237;DHT22;50101;49.438;11.098;2023-10-08T04:12:54;19.70;67.00
38237;DHT22;50101;49.438;11.098;2023-10-08T04:15:21;19.70;67.00
38237;DHT22;50101;49.438;11.098;2023-10-08T04:17:47;19.70;67.00
38237;DHT22;50101;49.438;11.098;2023-10-08T04:20:18;19.70;67.00
38237;DHT22;50101;49.438;11.098;2023-10-08T04:23:09;19.70;67.00
38237;DHT22;50101;49.438;11.098;2023-10-08T04:25:47;19.70;67.00
38237;DHT22;50101;49.438;11.098;2023-10-08T04:28:21;19.70;67.00
38237;DHT22;50101;49.438;11.098;2023-10-08T04:30:48;19.70;67.00
38237;DHT22;50101;49.438;11.098;2023-10-08T04:33:14;19.70;67.00
38237;DHT22;50101;49.438;11.098;2023-10-08T04:35:43;19.70;67.00
38237;DHT22;50101;49.438;11.098;2023-10-08T04:38:23;19.70;67.00
38237;DHT22;50101;49.438;11.098;2023-10-08T04:40:52;19.70;67.00
38237;DHT22;50101;49.438;11.098;2023-10-08T04:43:21;19.70;67.00
38237;DHT22;50101;49.438;11.098;2023-10-08T04:45:52;19.70;67.00
38237;DHT22;50101;49.438;11.098;2023-10-08T04:48:19;19.70;67.00
38237;DHT22;50101;49.438;11.098;2023-10-08T04:50:51;19.70;67.00
38237;DHT22;50101;49.438;11.098;2023-10-08T04:53:32;19.70;67.00
38237;DHT22;50101;49.438;11.098;2023-10-08T04:56:11;19.70;67.00
38237;DHT22;50101;49.438;11.098;2023-10-08T04:58:45;19.70;67.00
38237;DHT22;50101;49.438;11.098;2023-10-08T05:01:18;19.70;67.00
38237;DHT22;50101;49.438;11.098;2023-10-08T05:03:56;19.70;67.00
38237;DHT22;50101;49.438;11.098;2023-10-08T05:06:28;19.70;67.00
38237;DHT22;50101;49.438;11.098;2023-10-08T05:11:40;19.70;67.00
38237;DHT22;50101;49.438;11.098;2023-10-08T05:14:15;19.70;67.00
38237;DHT22;50101;49.438;11.098;2023-10-08T05:17:03;19.70;67.00
38237;DHT22;50101;49.438;11.098;2023-10-08T05:19:40;19.70;67.80
38237;DHT22;50101;49.438;11.098;2023-10-08T05:22:11;19.70;67.00
38237;DHT22;50101;49.438;11.098;2023-10-08T05:24:57;19.70;67.70
38237;DHT22;50101;49.438;11.098;2023-10-08T05:27:43;19.70;67.00
38237;DHT22;50101;49.438;11.098;2023-10-08T05:30:27;19.70;67.00
38237;DHT22;50101;49.438;11.098;2023-10-08T05:33:04;19.70;67.00
38237;DHT22;50101;49.438;11.098;2023-10-08T05:35:46;19.70;67.00
38237;DHT22;50101;49.438;11.098;2023-10-08T05:38:20;19.70;67.00
38237;DHT22;50101;49.438;11.098;2023-10-08T05:40:58;19.70;67.00
38237;DHT22;50101;49.438;11.098;2023-10-08T05:43:36;19.60;66.90
38237;DHT22;50101;49.438;11.098;2023-10-08T05:46:07;19.70;67.00
38237;DHT22;50101;49.438;11.098;2023-10-08T05:48:53;19.70;67.00
38237;DHT22;50101;49.438;11.098;2023-10-08T05:51:37;19.70;67.00
38237;DHT22;50101;49.438;11.098;2023-10-08T05:54:14;19.70;67.00
38237;DHT22;50101;49.438;11.098;2023-10-08T05:56:54;19.70;67.00
38237;DHT22;50101;49.438;11.098;2023-10-08T05:59:47;19.70;67.00
38237;DHT22;50101;49.438;11.098;2023-10-08T06:02:28;19.70;67.00
38237;DHT22;50101;49.438;11.098;2023-10-08T06:07:41;19.70;67.00
38237;DHT22;50101;49.438;11.098;2023-10-08T06:10:29;19.70;67.00
38237;DHT22;50101;49.438;11.098;2023-10-08T06:12:57;19.70;67.00
38237;DHT22;50101;49.438;11.098;2023-10-08T06:15:41;19.70;67.00
38237;DHT22;50101;49.438;11.098;2023-10-08T06:18:19;19.70;67.00
38237;DHT22;50101;49.438;11.098;2023-10-08T06:20:46;19.70;67.00
38237;DHT22;50101;49.438;11.098;2023-10-08T06:23:16;19.70;66.40
38237;DHT22;50101;49.438;11.098;2023-10-08T06:25:46;19.70;67.00
38237;DHT22;50101;49.438;11.098;2023-10-08T06:28:14;19.70;67.00
38237;DHT22;50101;49.438;11.098;2023-10-08T06:30:42;19.70;67.00
38237;DHT22;50101;49.438;11.098;2023-10-08T06:33:13;19.70;67.00
38237;DHT22;50101;49.438;11.098;2023-10-08T06:35:40;19.70;67.00
38237;DHT22;50101;49.438;11.098;2023-10-08T06:38:38;19.70;67.00
38237;DHT22;50101;49.438;11.098;2023-10-08T06:41:06;19.70;67.00
38237;DHT22;50101;49.438;11.098;2023-10-08T06:43:44;19.70;66.90
38237;DHT22;50101;49.438;11.098;2023-10-08T06:46:18;19.70;66.90
38237;DHT22;50101;49.438;11.098;2023-10-08T06:48:47;19.70;67.00
38237;DHT22;50101;49.438;11.098;2023-10-08T06:51:16;19.70;67.00
38237;DHT22;50101;49.438;11.098;2023-10-08T06:53:47;19.70;67.00
38237;DHT22;50101;49.438;11.098;2023-10-08T06:56:15;19.70;67.00
38237;DHT22;50101;49.438;11.098;2023-10-08T06:58:42;19.70;67.00
38237;DHT22;50101;49.438;11.098;2023-10-08T07:01:16;19.70;67.00
38237;DHT22;50101;49.438;11.098;2023-10-08T07:03:48;19.70;67.00
38237;DHT22;50101;49.438;11.098;2023-10-08T07:06:18;19.70;67.00
38237;DHT22;50101;49.438;11.098;2023-10-08T07:08:59;19.70;66.90
38237;DHT22;50101;49.438;11.098;2023-10-08T07:11:34;19.70;67.00
38237;DHT22;50101;49.438;11.098;2023-10-08T07:14:06;19.70;67.00
38237;DHT22;50101;49.438;11.098;2023-10-08T07:16:32;19.70;67.00
38237;DHT22;50101;49.438;11.098;2023-10-08T07:18:59;19.70;67.00
38237;DHT22;50101;49.438;11.098;2023-10-08T07:21:30;19.70;67.00
38237;DHT22;50101;49.438;11.098;2023-10-08T07:24:05;19.70;67.00
38237;DHT22;50101;49.438;11.098;2023-10-08T07:26:41;19.70;67.00
38237;DHT22;50101;49.438;11.098;2023-10-08T07:29:14;19.60;66.90
38237;DHT22;50101;49.438;11.098;2023-10-08T07:31:45;19.70;67.00
38237;DHT22;50101;49.438;11.098;2023-10-08T07:34:16;19.70;67.00
38237;DHT22;50101;49.438;11.098;2023-10-08T07:36:47;19.70;67.00
38237;DHT22;50101;49.438;11.098;2023-10-08T07:39:18;19.70;67.00
38237;DHT22;50101;49.438;11.098;2023-10-08T07:42:03;19.70;67.00
38237;DHT22;50101;49.438;11.098;2023-10-08T07:44:32;19.70;67.00
38237;DHT22;50101;49.438;11.098;2023-10-08T07:47:02;19.70;67.00
38237;DHT22;50101;49.438;11.098;2023-10-08T07:49:37;19.70;67.00
38237;DHT22;50101;49.438;11.098;2023-10-08T07:52:04;19.70;67.00
38237;DHT22;50101;49.438;11.098;2023-10-08T07:54:31;19.70;67.00
38237;DHT22;50101;49.438;11.098;2023-10-08T07:57:03;19.70;67.20
38237;DHT22;50101;49.438;11.098;2023-10-08T07:59:36;19.70;67.20
38237;DHT22;50101;49.438;11.098;2023-10-08T08:02:22;19.70;67.40
38237;DHT22;50101;49.438;11.098;2023-10-08T08:04:53;19.80;67.70
38237;DHT22;50101;49.438;11.098;2023-10-08T08:07:20;19.80;67.70
38237;DHT22;50101;49.438;11.098;2023-10-08T08:09:49;19.80;68.10
38237;DHT22;50101;49.438;11.098;2023-10-08T08:12:26;19.80;68.10
38237;DHT22;50101;49.438;11.098;2023-10-08T08:14:54;19.80;68.10
38237;DHT22;50101;49.438;11.098;2023-10-08T08:17:21;19.80;68.10
38237;DHT22;50101;49.438;11.098;2023-10-08T08:19:51;19.80;68.10
38237;DHT22;50101;49.438;11.098;2023-10-08T08:22:22;19.80;68.10
38237;DHT22;50101;49.438;11.098;2023-10-08T08:24:53;19.80;68.10
38237;DHT22;50101;49.438;11.098;2023-10-08T08:27:25;19.80;68.30
38237;DHT22;50101;49.438;11.098;2023-10-08T08:29:59;19.80;68.30
38237;DHT22;50101;49.438;11.098;2023-10-08T08:32:37;19.80;68.30
38237;DHT22;50101;49.438;11.098;2023-10-08T08:35:07;19.80;68.60
38237;DHT22;50101;49.438;11.098;2023-10-08T08:37:36;19.80;68.30
38237;DHT22;50101;49.438;11.098;2023-10-08T08:40:05;19.80;68.30
38237;DHT22;50101;49.438;11.098;2023-10-08T08:42:52;19.80;68.30
38237;DHT22;50101;49.438;11.098;2023-10-08T08:45:21;19.80;68.50
38237;DHT22;50101;49.438;11.098;2023-10-08T08:47:47;19.80;68.40
38237;DHT22;50101;49.438;11.098;2023-10-08T08:50:15;19.80;68.40
38237;DHT22;50101;49.438;11.098;2023-10-08T08:52:44;19.80;68.50
38237;DHT22;50101;49.438;11.098;2023-10-08T08:55:12;19.90;68.30
38237;DHT22;50101;49.438;11.098;2023-10-08T08:57:46;19.80;68.10
38237;DHT22;50101;49.438;11.098;2023-10-08T09:00:16;19.90;68.30
38237;DHT22;50101;49.438;11.098;2023-10-08T09:02:48;19.90;68.40
38237;DHT22;50101;49.438;11.098;2023-10-08T09:05:16;19.90;68.30
38237;DHT22;50101;49.438;11.098;2023-10-08T09:07:58;19.80;68.20
38237;DHT22;50101;49.438;11.098;2023-10-08T09:10:26;19.80;68.20
38237;DHT22;50101;49.438;11.098;2023-10-08T09:12:57;19.80;68.30
38237;DHT22;50101;49.438;11.098;2023-10-08T09:15:27;19.80;68.20
38237;DHT22;50101;49.438;11.098;2023-10-08T09:17:55;19.80;68.30
38237;DHT22;50101;49.438;11.098;2023-10-08T09:20:22;19.90;68.30
38237;DHT22;50101;49.438;11.098;2023-10-08T09:23:10;19.80;68.30
38237;DHT22;50101;49.438;11.098;2023-10-08T09:25:41;19.80;68.30
38237;DHT22;50101;49.438;11.098;2023-10-08T09:28:08;19.80;68.30
38237;DHT22;50101;49.438;11.098;2023-10-08T09:30:35;19.80;68.30
38237;DHT22;50101;49.438;11.098;2023-10-08T09:33:08;19.80;68.30
38237;DHT22;50101;49.438;11.098;2023-10-08T09:35:35;19.80;68.30
38237;DHT22;50101;49.438;11.098;2023-10-08T09:38:03;19.80;68.30
38237;DHT22;50101;49.438;11.098;2023-10-08T09:40:31;19.80;68.10
38237;DHT22;50101;49.438;11.098;2023-10-08T09:42:59;19.80;68.20
38237;DHT22;50101;49.438;11.098;2023-10-08T09:45:26;19.80;68.30
38237;DHT22;50101;49.438;11.098;2023-10-08T09:47:54;19.80;68.30
38237;DHT22;50101;49.438;11.098;2023-10-08T09:50:28;19.80;68.20
38237;DHT22;50101;49.438;11.098;2023-10-08T09:53:09;19.80;68.20
38237;DHT22;50101;49.438;11.098;2023-10-08T09:55:54;19.80;68.20
38237;DHT22;50101;49.438;11.098;2023-10-08T09:58:26;19.80;68.20
38237;DHT22;50101;49.438;11.098;2023-10-08T10:00:55;19.80;68.30
38237;DHT22;50101;49.438;11.098;2023-10-08T10:03:27;19.80;68.20
38237;DHT22;50101;49.438;11.098;2023-10-08T10:05:55;19.80;68.20
38237;DHT22;50101;49.438;11.098;2023-10-08T10:08:28;19.80;68.30
38237;DHT22;50101;49.438;11.098;2023-10-08T10:11:03;19.80;68.20
38237;DHT22;50101;49.438;11.098;2023-10-08T10:13:35;19.80;68.40
38237;DHT22;50101;49.438;11.098;2023-10-08T10:16:13;19.80;68.40
38237;DHT22;50101;49.438;11.098;2023-10-08T10:18:44;19.80;68.30
38237;DHT22;50101;49.438;11.098;2023-10-08T10:23:46;19.80;68.80
38237;DHT22;50101;49.438;11.098;2023-10-08T10:26:32;19.90;68.80
38237;DHT22;50101;49.438;11.098;2023-10-08T10:31:46;19.90;68.90
38237;DHT22;50101;49.438;11.098;2023-10-08T10:34:14;19.90;68.90
38237;DHT22;50101;49.438;11.098;2023-10-08T10:36:49;19.90;69.00
38237;DHT22;50101;49.438;11.098;2023-10-08T10:39:17;19.90;68.90
38237;DHT22;50101;49.438;11.098;2023-10-08T10:41:57;19.90;69.00
38237;DHT22;50101;49.438;11.098;2023-10-08T10:44:24;19.90;69.00
38237;DHT22;50101;49.438;11.098;2023-10-08T10:46:52;19.90;69.00
38237;DHT22;50101;49.438;11.098;2023-10-08T10:49:39;19.90;69.10
38237;DHT22;50101;49.438;11.098;2023-10-08T10:52:20;19.90;69.10
38237;DHT22;50101;49.438;11.098;2023-10-08T10:55:14;19.90;69.10
38237;DHT22;50101;49.438;11.098;2023-10-08T10:57:54;19.90;69.10
38237;DHT22;50101;49.438;11.098;2023-10-08T11:00:31;19.90;69.20
38237;DHT22;50101;49.438;11.098;2023-10-08T11:03:02;19.90;69.10
38237;DHT22;50101;49.438;11.098;2023-10-08T11:05:32;19.90;69.20
38237;DHT22;50101;49.438;11.098;2023-10-08T11:08:06;19.90;69.10
38237;DHT22;50101;49.438;11.098;2023-10-08T11:10:35;19.90;69.20
38237;DHT22;50101;49.438;11.098;2023-10-08T11:13:05;19.80;69.10
38237;DHT22;50101;49.438;11.098;2023-10-08T11:15:42;19.80;69.10
38237;DHT22;50101;49.438;11.098;2023-10-08T11:18:10;19.80;69.10
38237;DHT22;50101;49.438;11.098;2023-10-08T11:20:40;19.80;69.10
38237;DHT22;50101;49.438;11.098;2023-10-08T11:23:07;19.90;69.10
38237;DHT22;50101;49.438;11.098;2023-10-08T11:25:55;19.80;68.90
38237;DHT22;50101;49.438;11.098;2023-10-08T11:28:22;19.90;69.00
38237;DHT22;50101;49.438;11.098;2023-10-08T11:30:54;19.80;69.00
38237;DHT22;50101;49.438;11.098;2023-10-08T11:33:23;19.90;69.10
38237;DHT22;50101;49.438;11.098;2023-10-08T11:36:06;19.90;69.10
38237;DHT22;50101;49.438;11.098;2023-10-08T11:38:40;19.90;69.00
38237;DHT22;50101;49.438;11.098;2023-10-08T11:41:16;19.90;69.10
38237;DHT22;50101;49.438;11.098;2023-10-08T11:43:55;19.90;69.30
38237;DHT22;50101;49.438;11.098;2023-10-08T11:46:29;19.90;69.10
38237;DHT22;50101;49.438;11.098;2023-10-08T11:49:05;19.90;69.30
38237;DHT22;50101;49.438;11.098;2023-10-08T11:51:34;20.00;69.90
38237;DHT22;50101;49.438;11.098;2023-10-08T11:54:01;20.00;69.60
38237;DHT22;50101;49.438;11.098;2023-10-08T11:56:29;20.00;69.80
38237;DHT22;50101;49.438;11.098;2023-10-08T11:58:56;20.00;69.80
38237;DHT22;50101;49.438;11.098;2023-10-08T12:01:26;20.00;69.80
38237;DHT22;50101;49.438;11.098;2023-10-08T12:03:53;20.00;70.00
38237;DHT22;50101;49.438;11.098;2023-10-08T12:06:26;20.00;70.00
38237;DHT22;50101;49.438;11.098;2023-10-08T12:08:56;20.00;70.00
38237;DHT22;50101;49.438;11.098;2023-10-08T12:11:25;20.00;69.90
38237;DHT22;50101;49.438;11.098;2023-10-08T12:13:59;20.00;70.40
38237;DHT22;50101;49.438;11.098;2023-10-08T12:16:26;20.00;70.40
38237;DHT22;50101;49.438;11.098;2023-10-08T12:18:56;20.00;70.60
38237;DHT22;50101;49.438;11.098;2023-10-08T12:21:26;20.00;70.80
38237;DHT22;50101;49.438;11.098;2023-10-08T12:23:59;20.00;70.90
38237;DHT22;50101;49.438;11.098;2023-10-08T12:26:26;20.00;70.50
38237;DHT22;50101;49.438;11.098;2023-10-08T12:28:52;20.00;70.50
38237;DHT22;50101;49.438;11.098;2023-10-08T12:31:20;20.00;70.70
38237;DHT22;50101;49.438;11.098;2023-10-08T12:33:51;20.00;70.60
38237;DHT22;50101;49.438;11.098;2023-10-08T12:36:23;20.00;71.00
38237;DHT22;50101;49.438;11.098;2023-10-08T12:38:52;20.00;70.70
38237;DHT22;50101;49.438;11.098;2023-10-08T12:41:27;20.00;70.70
38237;DHT22;50101;49.438;11.098;2023-10-08T12:43:54;20.00;70.50
38237;DHT22;50101;49.438;11.098;2023-10-08T12:46:22;20.00;70.60
38237;DHT22;50101;49.438;11.098;2023-10-08T12:48:53;19.90;70.70
38237;DHT22;50101;49.438;11.098;2023-10-08T12:51:22;19.90;70.80
38237;DHT22;50101;49.438;11.098;2023-10-08T12:53:53;19.90;70.70
38237;DHT22;50101;49.438;11.098;2023-10-08T12:56:30;20.00;71.30
38237;DHT22;50101;49.438;11.098;2023-10-08T12:59:12;20.30;70.60
38237;DHT22;50101;49.438;11.098;2023-10-08T13:01:49;20.30;70.10
38237;DHT22;50101;49.438;11.098;2023-10-08T13:04:21;20.20;70.10
38237;DHT22;50101;49.438;11.098;2023-10-08T13:06:56;20.10;70.40
38237;DHT22;50101;49.438;11.098;2023-10-08T13:09:29;20.10;70.40
38237;DHT22;50101;49.438;11.098;2023-10-08T13:12:03;20.10;70.80
38237;DHT22;50101;49.438;11.098;2023-10-08T13:14:31;20.10;70.60
38237;DHT22;50101;49.438;11.098;2023-10-08T13:17:02;20.00;70.60
38237;DHT22;50101;49.438;11.098;2023-10-08T13:19:28;20.10;70.80
38237;DHT22;50101;49.438;11.098;2023-10-08T13:21:57;20.10;70.70
38237;DHT22;50101;49.438;11.098;2023-10-08T13:24:24;20.00;70.70
38237;DHT22;50101;49.438;11.098;2023-10-08T13:26:54;20.00;70.60
38237;DHT22;50101;49.438;11.098;2023-10-08T13:29:21;20.00;71.00
38237;DHT22;50101;49.438;11.098;2023-10-08T13:31:47;20.00;70.70
38237;DHT22;50101;49.438;11.098;2023-10-08T13:34:15;20.00;70.80
38237;DHT22;50101;49.438;11.098;2023-10-08T13:36:43;20.00;70.70
38237;DHT22;50101;49.438;11.098;2023-10-08T13:39:13;20.00;70.70
38237;DHT22;50101;49.438;11.098;2023-10-08T13:41:45;20.00;70.60
38237;DHT22;50101;49.438;11.098;2023-10-08T13:44:15;20.00;70.60
38237;DHT22;50101;49.438;11.098;2023-10-08T13:46:42;19.90;70.50
38237;DHT22;50101;49.438;11.098;2023-10-08T13:49:16;20.00;70.50
38237;DHT22;50101;49.438;11.098;2023-10-08T13:51:43;19.90;71.20
38237;DHT22;50101;49.438;11.098;2023-10-08T13:54:11;20.00;70.50
38237;DHT22;50101;49.438;11.098;2023-10-08T13:56:38;19.90;70.40
38237;DHT22;50101;49.438;11.098;2023-10-08T13:59:08;19.90;70.40
38237;DHT22;50101;49.438;11.098;2023-10-08T14:01:41;19.90;70.40
38237;DHT22;50101;49.438;11.098;2023-10-08T14:04:10;19.90;70.40
38237;DHT22;50101;49.438;11.098;2023-10-08T14:06:39;19.90;70.40
38237;DHT22;50101;49.438;11.098;2023-10-08T14:09:14;19.90;70.50
38237;DHT22;50101;49.438;11.098;2023-10-08T14:11:48;19.90;70.40
38237;DHT22;50101;49.438;11.098;2023-10-08T14:14:17;20.00;70.40
38237;DHT22;50101;49.438;11.098;2023-10-08T14:16:46;19.90;70.40
38237;DHT22;50101;49.438;11.098;2023-10-08T14:19:20;19.90;70.30
38237;DHT22;50101;49.438;11.098;2023-10-08T14:21:55;19.90;70.30
38237;DHT22;50101;49.438;11.098;2023-10-08T14:24:30;19.90;70.40
38237;DHT22;50101;49.438;11.098;2023-10-08T14:27:01;19.90;70.40
38237;DHT22;50101;49.438;11.098;2023-10-08T14:29:37;19.90;70.40
38237;DHT22;50101;49.438;11.098;2023-10-08T14:32:07;19.90;70.40
38237;DHT22;50101;49.438;11.098;2023-10-08T14:34:37;19.90;70.40
38237;DHT22;50101;49.438;11.098;2023-10-08T14:37:13;19.90;70.40
38237;DHT22;50101;49.438;11.098;2023-10-08T14:39:59;19.90;70.30
38237;DHT22;50101;49.438;11.098;2023-10-08T14:42:44;19.90;70.30
38237;DHT22;50101;49.438;11.098;2023-10-08T14:45:29;19.90;70.40
38237;DHT22;50101;49.438;11.098;2023-10-08T14:48:01;19.90;70.30
38237;DHT22;50101;49.438;11.098;2023-10-08T14:50:28;19.90;70.40
38237;DHT22;50101;49.438;11.098;2023-10-08T14:52:58;19.90;70.40
38237;DHT22;50101;49.438;11.098;2023-10-08T14:55:32;19.90;70.40
38237;DHT22;50101;49.438;11.098;2023-10-08T14:58:04;19.90;70.40
38237;DHT22;50101;49.438;11.098;2023-10-08T15:00:35;19.90;70.40
38237;DHT22;50101;49.438;11.098;2023-10-08T15:03:05;19.90;70.50
38237;DHT22;50101;49.438;11.098;2023-10-08T15:05:32;19.90;70.40
38237;DHT22;50101;49.438;11.098;2023-10-08T15:07:59;19.90;70.60
38237;DHT22;50101;49.438;11.098;2023-10-08T15:10:26;19.90;70.40
38237;DHT22;50101;49.438;11.098;2023-10-08T15:12:53;19.90;70.50
38237;DHT22;50101;49.438;11.098;2023-10-08T15:15:20;19.90;70.50
38237;DHT22;50101;49.438;11.098;2023-10-08T15:17:51;19.90;70.40
38237;DHT22;50101;49.438;11.098;2023-10-08T15:20:18;19.90;70.60
38237;DHT22;50101;49.438;11.098;2023-10-08T15:22:47;19.90;70.40
38237;DHT22;50101;49.438;11.098;2023-10-08T15:25:17;19.90;70.40
38237;DHT22;50101;49.438;11.098;2023-10-08T15:27:44;19.90;70.50
38237;DHT22;50101;49.438;11.098;2023-10-08T15:30:14;19.90;70.40
38237;DHT22;50101;49.438;11.098;2023-10-08T15:32:43;19.90;70.50
38237;DHT22;50101;49.438;11.098;2023-10-08T15:35:12;19.90;70.60
38237;DHT22;50101;49.438;11.098;2023-10-08T15:37:41;19.90;70.60
38237;DHT22;50101;49.438;11.098;2023-10-08T15:40:10;19.90;70.50
38237;DHT22;50101;49.438;11.098;2023-10-08T15:42:53;19.90;70.00
38237;DHT22;50101;49.438;11.098;2023-10-08T15:45:23;19.90;70.70
38237;DHT22;50101;49.438;11.098;2023-10-08T15:47:50;19.90;70.60
38237;DHT22;50101;49.438;11.098;2023-10-08T15:50:18;19.90;70.60
38237;DHT22;50101;49.438;11.098;2023-10-08T15:52:51;19.90;70.50
38237;DHT22;50101;49.438;11.098;2023-10-08T15:55:20;19.90;70.70
38237;DHT22;50101;49.438;11.098;2023-10-08T15:57:49;19.90;70.40